Main page
METAR-TAF:

METAR-TAF

Airports :

Ivato International Airport

Antananarivo, Madagascar

latitude: 18-48S, longitude: 047-29E, elevation: 1279 m

Current weather observation

The report was made 28 minutes ago, at 10:00 UTC
Wind 8 kt from the South, varying between Southeast and South/Southwest
Temperature 21°C
Humidity 83%
Pressure 1011 hPa
Visibility 10 km or more
Scattered clouds at a height of 1000 ft
Broken clouds at a height of 2000 ft
light rain, drizzle

METAR: FMMI 231000Z 17008KT 130V210 9999 -RADZ SCT010 BKN020 21/18 Q1011 NOSIG

Time: 13:28 (10:28 UTC)

Forecast

The report was made 5 hours and 28 minutes ago, at 05:00 UTC
Forecast valid from 23 at 06 UTC to 24 at 12 UTC
Wind 10 kt from the Southeast
Visibility: 9000 m
Scattered clouds at a height of 1000 ft
Broken clouds at a height of 2000 ft
Temporary
from 23 at 06 UTC to 23 at 24 UTC
Visibility: 4000 m
rain

TAF: FMMI 230500Z 2306/2412 13010KT 9000 SCT010 BKN020 TEMPO 2306/2324 4000 RA

Weather observations and forecasts of more than 4000 airports (METAR and TAF reports).

The available stations are represented by yellow and red dots on the map.

Hover mouse over dot to see the name of the station.

Then click to see weather observations and forecasts.

To change the map : click on the green buttons with a black cross to zoom in, on the green button with a dash to zoom out, or on the green arrows for adjacent maps.


METAR-TAF: